TimeMDT,TemperatureF,Dew PointF,Humidity,Sea Level PressureIn,VisibilityMPH,Wind Direction,Wind SpeedMPH,Gust SpeedMPH,PrecipitationIn,Events,Conditions,WindDirDegrees,DateUTC
12:56 AM,17.1,8.1,68,30.04,9.0,East,5.8,-,N/A,,Clear,80,2014-03-22 06:56:00
1:56 AM,19.0,9.1,65,30.04,10.0,South,3.5,-,N/A,,Clear,180,2014-03-22 07:56:00
2:56 AM,16.2,9.1,74,30.04,10.0,East,3.5,-,N/A,,Clear,80,2014-03-22 08:56:00
3:56 AM,18.1,8.1,65,30.03,10.0,North,3.5,-,N/A,,Clear,350,2014-03-22 09:56:00
4:56 AM,14.0,5.0,67,30.07,10.0,East,4.6,-,N/A,,Mostly Cloudy,90,2014-03-22 10:56:00
5:56 AM,18.1,6.1,59,30.08,10.0,ESE,3.5,-,N/A,,Partly Cloudy,110,2014-03-22 11:56:00
6:56 AM,12.0,7.2,81,30.14,10.0,SE,3.5,-,N/A,,Clear,140,2014-03-22 12:56:00
7:56 AM,6.1,-0.9,73,30.22,8.0,NE,4.6,-,N/A,,Clear,40,2014-03-22 13:56:00
8:56 AM,14.0,4.1,65,30.22,9.0,Calm,Calm,-,N/A,,Clear,0,2014-03-22 14:56:00
9:56 AM,19.0,8.1,62,30.22,8.0,SSW,3.5,-,N/A,,Clear,200,2014-03-22 15:56:00
10:56 AM,26.1,12.0,55,30.21,9.0,Calm,Calm,-,N/A,,Clear,0,2014-03-22 16:56:00
11:56 AM,30.0,13.1,49,30.22,8.0,NNE,3.5,-,N/A,,Clear,20,2014-03-22 17:56:00
12:56 PM,32.0,14.0,48,30.21,8.0,Variable,4.6,-,N/A,,Clear,0,2014-03-22 18:56:00
1:56 PM,32.9,8.1,35,30.21,8.0,NNE,4.6,-,N/A,,Clear,20,2014-03-22 19:56:00
2:56 PM,32.9,11.1,40,30.21,8.0,ENE,4.6,-,N/A,,Clear,60,2014-03-22 20:56:00
3:56 PM,32.9,12.0,42,30.20,9.0,East,6.9,-,N/A,,Clear,90,2014-03-22 21:56:00
4:56 PM,34.9,12.0,39,30.21,8.0,ENE,5.8,-,N/A,,Clear,70,2014-03-22 22:56:00
5:56 PM,34.0,15.1,46,30.21,10.0,NE,5.8,-,N/A,,Clear,40,2014-03-22 23:56:00
6:56 PM,30.0,16.2,56,30.25,8.0,East,5.8,-,N/A,,Clear,100,2014-03-23 00:56:00
7:56 PM,28.0,8.1,43,30.28,9.0,East,4.6,-,N/A,,Clear,100,2014-03-23 01:56:00
8:56 PM,24.1,11.1,58,30.28,10.0,South,6.9,-,N/A,,Clear,170,2014-03-23 02:56:00
9:56 PM,24.1,14.0,65,30.25,10.0,East,4.6,-,N/A,,Clear,90,2014-03-23 03:56:00
10:56 PM,21.0,13.1,71,30.23,10.0,East,5.8,-,N/A,,Clear,100,2014-03-23 04:56:00
11:56 PM,18.1,8.1,65,30.22,10.0,East,5.8,-,N/A,,Clear,100,2014-03-23 05:56:00